Date,TemperatureHighF,TemperatureAvgF,TemperatureLowF,DewpointHighF,DewpointAvgF,DewpointLowF,HumidityHigh,HumidityAvg,HumidityLow,PressureMaxIn,PressureMinIn,WindSpeedMaxMPH,WindSpeedAvgMPH,GustSpeedMaxMPH,PrecipitationSumIn
2013-2-1,22.6,18.3,12.2,15.0,11.6,7.2,85,75,58,30.12,29.61,18,7,18,0.00
2013-2-2,20.8,13.6,3.7,11.0,7.0,-0.6,84,75,60,30.13,29.95,13,2,13,0.00
2013-2-3,31.3,16.5,2.5,16.1,8.6,-2.1,86,72,51,29.95,29.73,13,2,13,0.00
2013-2-4,20.8,16.3,6.6,15.0,11.4,2.5,86,81,66,29.90,29.75,13,4,13,0.00
2013-2-5,28.9,16.1,1.0,15.5,7.0,-3.6,83,69,45,29.95,29.82,8,1,8,0.00
2013-2-6,27.7,19.9,4.5,22.3,10.7,-1.4,87,69,38,30.33,29.83,16,4,16,0.00
2013-2-7,29.1,16.7,3.0,9.8,4.2,-2.6,79,59,40,30.45,30.20,22,4,22,0.00
2013-2-8,29.1,24.8,20.8,22.6,17.7,7.5,87,75,54,30.20,29.79,25,6,25,0.00
2013-2-9,24.1,14.3,-1.8,18.1,5.4,-6.9,86,69,42,30.35,29.87,17,4,17,0.00
2013-2-10,34.9,17.6,-4.4,17.1,4.7,-9.9,82,60,34,30.42,30.08,15,3,15,0.00
2013-2-11,46.2,33.4,25.2,37.4,25.5,5.9,88,74,43,30.09,29.59,15,4,15,0.00
2013-2-12,33.6,31.3,29.1,28.1,26.1,23.4,88,81,70,29.90,29.66,19,7,19,0.00
2013-2-13,43.7,30.4,20.8,24.6,20.4,14.1,80,67,42,29.86,29.70,10,2,10,0.00
2013-2-14,40.1,29.6,15.8,29.3,21.5,11.8,87,73,52,29.91,29.73,11,1,11,0.00
2013-2-15,42.4,34.6,27.0,30.3,25.8,21.1,87,71,50,29.98,29.78,16,4,16,0.00
2013-2-16,30.9,23.8,16.3,21.7,11.2,3.3,80,59,39,29.99,29.83,88,5,88,0.00
2013-2-17,21.0,12.3,7.3,5.0,1.4,-1.6,81,62,42,30.01,29.76,20,7,20,0.00
2013-2-18,26.1,13.8,1.2,9.0,2.4,-5.0,76,61,47,30.21,30.01,15,4,15,0.00
2013-2-19,33.1,28.1,21.4,29.1,19.2,8.2,88,70,51,30.03,29.60,15,3,15,0.00
2013-2-20,26.6,22.5,18.5,20.9,16.3,12.9,87,78,59,29.89,29.69,0,0,0,0.00
2013-2-21,18.3,14.6,10.2,15.0,10.0,5.6,87,82,74,30.37,29.86,0,0,0,0.00
2013-2-22,34.3,24.2,9.1,23.6,16.3,5.0,85,73,55,30.37,30.09,19,4,19,0.00
2013-2-23,34.5,32.9,30.7,30.8,27.7,21.0,88,81,66,30.09,29.81,14,3,14,0.00
2013-2-24,33.4,29.9,27.7,30.2,25.9,22.8,88,85,70,29.97,29.79,8,2,10,0.00
2013-2-25,39.0,30.0,18.1,30.5,25.0,14.5,88,82,69,30.21,29.97,14,2,14,0.00
2013-2-26,43.5,31.4,14.7,28.6,22.5,11.0,87,71,52,30.23,29.90,22,6,22,0.00
2013-2-27,41.2,35.5,31.8,34.3,30.7,27.6,88,83,72,29.93,29.53,27,5,27,0.00
2013-2-28,39.9,33.8,31.6,33.3,30.0,28.1,89,86,75,29.63,29.52,6,0,6,0.00